Time;durP1;ratioP1;P1;durP2;ratioP2;P2;SDS_P1;SDS_P2;PMS_P1;PMS_P2;Temp;Humidity;BMP_temperature;BMP_pressure;BME280_temperature;BME280_humidity;BME280_pressure;Samples;Min_cycle;Max_cycle;Signal;HPM_P1;HPM_P2
2023/10/23 02:51:42;;;;;;;3.53;1.80;;;;;;;;;;4968649;28;20061;-65
2023/10/23 02:54:07;;;;;;;4.07;1.73;;;;;;;;;;4969721;28;20923;-65
2023/10/23 02:56:33;;;;;;;3.55;1.65;;;;;;;;;;4961465;28;20030;-64
2023/10/23 02:58:58;;;;;;;4.20;1.83;;;;;;;;;;4971405;28;20859;-65
2023/10/23 03:01:24;;;;;;;2.30;1.30;;;;;;;;;;4969551;28;20032;-65
2023/10/23 03:03:49;;;;;;;4.57;1.70;;;;;;;;;;4969267;28;20153;-65
2023/10/23 03:06:14;;;;;;;2.58;1.40;;;;;;;;;;4970321;28;20029;-65
2023/10/23 03:08:39;;;;;;;6.63;1.80;;;;;;;;;;4968469;28;20029;-65
2023/10/23 03:11:05;;;;;;;4.40;1.88;;;;;;;;;;4963255;28;20375;-65
2023/10/23 03:13:30;;;;;;;3.30;1.60;;;;;;;;;;4971212;28;20191;-65
2023/10/23 03:15:56;;;;;;;4.05;1.95;;;;;;;;;;4968805;28;20117;-65
2023/10/23 03:18:21;;;;;;;3.28;1.60;;;;;;;;;;4970008;28;20034;-64
2023/10/23 03:20:46;;;;;;;3.35;1.90;;;;;;;;;;4970764;28;20852;-64
2023/10/23 03:23:12;;;;;;;4.70;1.63;;;;;;;;;;4970220;28;20034;-66
2023/10/23 03:25:37;;;;;;;3.00;1.55;;;;;;;;;;4971838;28;20018;-65
2023/10/23 03:28:02;;;;;;;3.83;1.88;;;;;;;;;;4970857;28;20030;-65
2023/10/23 03:30:27;;;;;;;4.07;1.63;;;;;;;;;;4971093;28;20132;-65
2023/10/23 03:32:52;;;;;;;4.90;2.00;;;;;;;;;;4968017;28;20860;-65
2023/10/23 03:35:18;;;;;;;4.50;1.85;;;;;;;;;;4967271;28;21023;-65
2023/10/23 03:37:43;;;;;;;2.03;1.10;;;;;;;;;;4968026;28;20028;-65
2023/10/23 03:40:10;;;;;;;2.58;1.38;;;;;;;;;;4963182;28;21105;-65
2023/10/23 03:42:35;;;;;;;3.33;1.50;;;;;;;;;;4969148;28;20022;-65
2023/10/23 03:45:00;;;;;;;3.28;1.65;;;;;;;;;;4966530;28;21017;-65
2023/10/23 03:47:26;;;;;;;3.35;1.13;;;;;;;;;;4970186;28;20029;-65
2023/10/23 03:49:52;;;;;;;2.63;1.23;;;;;;;;;;4968938;28;20045;-65
2023/10/23 03:52:17;;;;;;;4.32;1.70;;;;;;;;;;4968301;28;20021;-65
2023/10/23 03:54:42;;;;;;;4.05;1.67;;;;;;;;;;4965503;28;20029;-65
2023/10/23 03:57:07;;;;;;;3.33;1.45;;;;;;;;;;4982792;28;20026;-65
2023/10/23 03:59:33;;;;;;;5.22;1.90;;;;;;;;;;4969148;28;20025;-65
2023/10/23 04:01:58;;;;;;;4.53;2.13;;;;;;;;;;4966545;28;20963;-65
2023/10/23 04:04:23;;;;;;;4.75;1.50;;;;;;;;;;4964594;28;21052;-65
2023/10/23 04:06:48;;;;;;;3.05;1.42;;;;;;;;;;4972052;28;20288;-65
2023/10/23 04:09:14;;;;;;;6.53;1.95;;;;;;;;;;4967871;28;20966;-65
2023/10/23 04:11:39;;;;;;;4.47;1.33;;;;;;;;;;4969358;28;20026;-65
2023/10/23 04:14:04;;;;;;;5.40;1.65;;;;;;;;;;4969062;28;20441;-64
2023/10/23 04:16:29;;;;;;;4.57;1.45;;;;;;;;;;4969943;28;20128;-65
2023/10/23 04:18:55;;;;;;;5.25;1.50;;;;;;;;;;4969193;28;20084;-65
2023/10/23 04:21:20;;;;;;;4.30;1.63;;;;;;;;;;4962872;28;20068;-65
2023/10/23 04:23:46;;;;;;;3.00;1.60;;;;;;;;;;4959522;28;20305;-65
2023/10/23 04:26:11;;;;;;;6.63;1.53;;;;;;;;;;4969881;28;20096;-65
2023/10/23 04:28:36;;;;;;;5.00;1.30;;;;;;;;;;4969979;28;20269;-65
2023/10/23 04:31:03;;;;;;;3.65;1.50;;;;;;;;;;4969648;28;20030;-65
2023/10/23 04:33:28;;;;;;;5.28;1.52;;;;;;;;;;4986259;28;20850;-64
2023/10/23 04:35:54;;;;;;;2.72;1.52;;;;;;;;;;4961063;28;20097;-64
2023/10/23 04:38:20;;;;;;;3.75;1.52;;;;;;;;;;4967366;28;20100;-64
2023/10/23 04:40:45;;;;;;;2.60;0.90;;;;;;;;;;4969426;28;20863;-64
2023/10/23 04:43:11;;;;;;;2.92;1.25;;;;;;;;;;4969296;28;20081;-64
2023/10/23 04:45:37;;;;;;;3.22;1.40;;;;;;;;;;4969343;28;20034;-64
2023/10/23 04:48:02;;;;;;;2.88;1.73;;;;;;;;;;4967977;28;20057;-64
2023/10/23 04:50:30;;;;;;;4.72;1.70;;;;;;;;;;4969313;28;20080;-64
2023/10/23 04:52:55;;;;;;;4.10;1.75;;;;;;;;;;4962549;28;20022;-64
2023/10/23 04:55:20;;;;;;;2.92;1.40;;;;;;;;;;4969616;28;20823;-64
2023/10/23 04:57:45;;;;;;;3.03;1.48;;;;;;;;;;4968193;28;20749;-64
2023/10/23 05:00:11;;;;;;;5.88;1.55;;;;;;;;;;4960031;28;20018;-64
2023/10/23 05:02:36;;;;;;;3.35;1.48;;;;;;;;;;4969653;28;20036;-64
2023/10/23 05:05:01;;;;;;;4.40;1.42;;;;;;;;;;4972754;28;20139;-64
2023/10/23 05:07:27;;;;;;;3.42;1.70;;;;;;;;;;4965514;28;20026;-64
2023/10/23 05:09:52;;;;;;;3.20;1.50;;;;;;;;;;4966871;28;20045;-65
2023/10/23 05:12:17;;;;;;;4.25;1.55;;;;;;;;;;4971784;28;20064;-64
2023/10/23 05:14:43;;;;;;;3.03;1.37;;;;;;;;;;4968974;28;20022;-64
2023/10/23 05:17:08;;;;;;;3.03;1.42;;;;;;;;;;4971067;28;20315;-64
2023/10/23 05:19:34;;;;;;;3.72;1.63;;;;;;;;;;4971277;28;20026;-66
2023/10/23 05:21:59;;;;;;;4.35;1.77;;;;;;;;;;4970064;28;20867;-64
2023/10/23 05:24:24;;;;;;;2.43;1.27;;;;;;;;;;4971688;28;20773;-64
2023/10/23 05:26:49;;;;;;;2.77;1.50;;;;;;;;;;4968450;28;21234;-66
2023/10/23 05:29:14;;;;;;;3.28;1.30;;;;;;;;;;4969052;28;21038;-66
2023/10/23 05:31:40;;;;;;;5.77;1.33;;;;;;;;;;4967543;28;20121;-66
2023/10/23 05:34:06;;;;;;;4.00;1.50;;;;;;;;;;4962057;28;20336;-66
2023/10/23 05:36:32;;;;;;;2.03;1.20;;;;;;;;;;4968236;28;21124;-66
2023/10/23 05:38:57;;;;;;;3.78;1.73;;;;;;;;;;4967298;28;20126;-66
2023/10/23 05:41:22;;;;;;;4.07;1.70;;;;;;;;;;4971694;28;20133;-66
2023/10/23 05:43:48;;;;;;;2.70;1.10;;;;;;;;;;4967614;28;20025;-66
2023/10/23 05:46:13;;;;;;;3.40;1.63;;;;;;;;;;4969374;28;20280;-66
2023/10/23 05:48:38;;;;;;;3.40;1.67;;;;;;;;;;4969003;28;20269;-66
2023/10/23 05:51:04;;;;;;;4.55;1.98;;;;;;;;;;4967389;28;20154;-66
2023/10/23 05:53:30;;;;;;;5.38;2.45;;;;;;;;;;4967131;28;20026;-66
2023/10/23 05:56:03;;;;;;;3.78;1.48;;;;;;;;;;4966395;28;20022;-65
2023/10/23 05:58:28;;;;;;;4.93;2.30;;;;;;;;;;4966287;28;20032;-66
2023/10/23 06:00:54;;;;;;;3.67;1.60;;;;;;;;;;4967492;28;20772;-66
2023/10/23 06:03:19;;;;;;;3.53;2.10;;;;;;;;;;4967961;28;20833;-66
2023/10/23 06:05:44;;;;;;;3.30;1.50;;;;;;;;;;4957047;28;20018;-65
2023/10/23 06:08:10;;;;;;;4.73;1.77;;;;;;;;;;4967521;28;20295;-65
2023/10/23 06:10:42;;;;;;;3.47;1.52;;;;;;;;;;4964839;28;20305;-66
2023/10/23 06:13:08;;;;;;;3.22;1.58;;;;;;;;;;4969002;28;20042;-65
2023/10/23 06:15:33;;;;;;;4.20;1.73;;;;;;;;;;4967447;28;20136;-65
2023/10/23 06:17:58;;;;;;;3.95;2.00;;;;;;;;;;4971632;28;20856;-66
2023/10/23 06:20:23;;;;;;;3.87;1.73;;;;;;;;;;4969107;28;20085;-66
2023/10/23 06:22:49;;;;;;;4.75;1.90;;;;;;;;;;4966410;28;20300;-66
2023/10/23 06:25:14;;;;;;;4.83;2.13;;;;;;;;;;4971023;28;20866;-66
2023/10/23 06:27:39;;;;;;;3.15;1.52;;;;;;;;;;4970373;28;21044;-66
2023/10/23 06:30:05;;;;;;;3.28;1.50;;;;;;;;;;4963461;28;20026;-66
2023/10/23 06:32:34;;;;;;;4.50;1.98;;;;;;;;;;4971261;28;20064;-66
2023/10/23 06:34:59;;;;;;;3.85;1.90;;;;;;;;;;4971002;28;20037;-66
2023/10/23 06:37:24;;;;;;;4.60;1.87;;;;;;;;;;4970696;28;20843;-66
2023/10/23 06:39:49;;;;;;;3.90;2.50;;;;;;;;;;4972521;28;20663;-66
2023/10/23 06:42:15;;;;;;;3.90;1.70;;;;;;;;;;4970422;28;20188;-66
2023/10/23 06:44:40;;;;;;;3.85;1.85;;;;;;;;;;4971689;28;20092;-66
2023/10/23 06:47:06;;;;;;;5.10;2.13;;;;;;;;;;4969756;28;20138;-66
2023/10/23 06:49:32;;;;;;;4.32;1.88;;;;;;;;;;4970039;28;20018;-66
2023/10/23 06:51:57;;;;;;;4.10;1.90;;;;;;;;;;4972294;28;21029;-66
2023/10/23 06:54:23;;;;;;;5.43;2.40;;;;;;;;;;4969720;28;20152;-66
2023/10/23 06:56:49;;;;;;;6.00;2.28;;;;;;;;;;4970392;28;20061;-66
2023/10/23 06:59:14;;;;;;;4.25;2.13;;;;;;;;;;4969474;28;20030;-66
2023/10/23 07:01:39;;;;;;;4.35;2.35;;;;;;;;;;4970480;28;20125;-66
2023/10/23 07:04:05;;;;;;;6.93;2.80;;;;;;;;;;4962332;28;20029;-66
2023/10/23 07:06:30;;;;;;;4.00;2.22;;;;;;;;;;4972780;28;20080;-66
2023/10/23 07:08:55;;;;;;;3.50;2.55;;;;;;;;;;4970973;28;20030;-66
2023/10/23 07:11:22;;;;;;;5.13;2.55;;;;;;;;;;4970221;28;20870;-66
2023/10/23 07:13:47;;;;;;;5.18;2.60;;;;;;;;;;4970108;28;20033;-66
2023/10/23 07:16:13;;;;;;;6.95;3.20;;;;;;;;;;4969338;28;20026;-66
2023/10/23 07:18:38;;;;;;;6.38;3.15;;;;;;;;;;4958604;28;20137;-66
2023/10/23 07:21:03;;;;;;;6.13;2.78;;;;;;;;;;4966956;28;20083;-66
2023/10/23 07:23:29;;;;;;;4.60;2.93;;;;;;;;;;4971364;28;20022;-66
2023/10/23 07:26:03;;;;;;;7.53;3.22;;;;;;;;;;4970206;28;20280;-66
2023/10/23 07:28:28;;;;;;;;;;;;;;;;;;4969837;28;20030;-66
2023/10/23 07:30:54;;;;;;;5.57;2.58;;;;;;;;;;4970103;28;19909;-66
2023/10/23 07:33:19;;;;;;;6.90;2.88;;;;;;;;;;4962512;28;20132;-66
2023/10/23 07:35:44;;;;;;;6.68;2.63;;;;;;;;;;4969525;28;20952;-66
2023/10/23 07:38:09;;;;;;;5.82;2.53;;;;;;;;;;4969210;28;20065;-66
2023/10/23 07:40:41;;;;;;;5.43;2.70;;;;;;;;;;4975498;28;20094;-66
2023/10/23 07:43:06;;;;;;;9.88;3.03;;;;;;;;;;4984569;28;20022;-67
2023/10/23 07:45:36;;;;;;;5.97;2.92;;;;;;;;;;4966942;28;20077;-66
2023/10/23 07:48:02;;;;;;;4.70;2.38;;;;;;;;;;4975521;28;20934;-66
2023/10/23 07:50:27;;;;;;;5.93;2.65;;;;;;;;;;4976801;28;20029;-66
2023/10/23 07:52:53;;;;;;;4.53;2.60;;;;;;;;;;4968686;28;20934;-67
2023/10/23 07:55:18;;;;;;;5.07;2.53;;;;;;;;;;4981367;28;20032;-66
2023/10/23 07:57:43;;;;;;;4.85;2.67;;;;;;;;;;4969387;28;20818;-67
2023/10/23 08:00:08;;;;;;;7.30;2.70;;;;;;;;;;4966246;28;20026;-67
2023/10/23 08:02:34;;;;;;;5.82;2.65;;;;;;;;;;4970672;28;20269;-67
2023/10/23 08:04:59;;;;;;;5.75;2.30;;;;;;;;;;4973664;28;20018;-67
2023/10/23 08:07:24;;;;;;;5.43;2.47;;;;;;;;;;4970882;28;20026;-66
2023/10/23 08:09:49;;;;;;;6.70;2.63;;;;;;;;;;4974376;28;20136;-66
2023/10/23 08:12:15;;;;;;;6.30;2.57;;;;;;;;;;4980838;28;20276;-66
2023/10/23 08:14:40;;;;;;;4.53;2.83;;;;;;;;;;4970837;28;20320;-65
2023/10/23 08:17:05;;;;;;;4.03;2.10;;;;;;;;;;4973562;28;20030;-65
2023/10/23 08:19:30;;;;;;;6.70;3.72;;;;;;;;;;4997804;28;20030;-66
2023/10/23 08:21:56;;;;;;;7.72;3.40;;;;;;;;;;4967155;28;20037;-65
2023/10/23 08:24:22;;;;;;;7.00;3.10;;;;;;;;;;4979680;28;20041;-65
2023/10/23 08:26:47;;;;;;;7.95;2.83;;;;;;;;;;4969193;28;21130;-65
2023/10/23 08:29:12;;;;;;;8.25;2.83;;;;;;;;;;4969439;28;20033;-66
2023/10/23 08:31:38;;;;;;;13.13;3.63;;;;;;;;;;4982073;28;21489;-66
2023/10/23 08:34:03;;;;;;;7.45;3.45;;;;;;;;;;4987316;28;20033;-65
2023/10/23 08:36:28;;;;;;;7.18;3.65;;;;;;;;;;4969947;28;20899;-65
2023/10/23 08:38:54;;;;;;;7.90;3.60;;;;;;;;;;4968603;28;21033;-65
2023/10/23 08:41:19;;;;;;;6.63;4.28;;;;;;;;;;4970233;28;21144;-65
2023/10/23 08:43:44;;;;;;;6.03;3.83;;;;;;;;;;4972541;28;20068;-65
2023/10/23 08:46:10;;;;;;;8.75;4.40;;;;;;;;;;4972132;28;20435;-65
2023/10/23 08:48:38;;;;;;;10.10;4.40;;;;;;;;;;4971243;28;20087;-65
2023/10/23 08:51:04;;;;;;;8.80;4.30;;;;;;;;;;4967589;28;20134;-65
2023/10/23 08:53:33;;;;;;;8.25;4.35;;;;;;;;;;4968136;28;20393;-65
2023/10/23 08:56:02;;;;;;;7.32;3.78;;;;;;;;;;4969689;28;20375;-65
2023/10/23 08:58:28;;;;;;;7.15;3.67;;;;;;;;;;4968685;28;20088;-65
2023/10/23 09:00:53;;;;;;;8.25;4.88;;;;;;;;;;4967433;28;20030;-65
2023/10/23 09:03:20;;;;;;;8.30;4.10;;;;;;;;;;4964287;28;20551;-65
2023/10/23 09:05:45;;;;;;;7.90;4.20;;;;;;;;;;4978410;28;21271;-65
2023/10/23 09:08:10;;;;;;;5.80;3.80;;;;;;;;;;4965332;28;20025;-65
2023/10/23 09:10:55;;;;;;;5.78;3.63;;;;;;;;;;4988841;28;20423;-65
2023/10/23 09:13:23;;;;;;;8.68;4.88;;;;;;;;;;4967174;28;20029;-65
2023/10/23 09:15:49;;;;;;;11.32;4.40;;;;;;;;;;4988183;28;20039;-65
2023/10/23 09:18:14;;;;;;;10.25;4.65;;;;;;;;;;5002103;28;20033;-65
2023/10/23 09:20:41;;;;;;;8.73;3.78;;;;;;;;;;5009852;28;20034;-65
2023/10/23 09:23:11;;;;;;;7.63;4.28;;;;;;;;;;4990617;28;20025;-65
2023/10/23 09:25:37;;;;;;;7.07;4.35;;;;;;;;;;4999639;28;20014;-67
2023/10/23 09:28:09;;;;;;;5.53;3.30;;;;;;;;;;4995293;28;20097;-65
2023/10/23 09:30:34;;;;;;;8.07;4.03;;;;;;;;;;4965165;28;20029;-65
2023/10/23 09:33:00;;;;;;;7.40;3.85;;;;;;;;;;4959843;28;20058;-65
2023/10/23 09:35:27;;;;;;;7.30;3.97;;;;;;;;;;4969940;28;20044;-65
2023/10/23 09:37:52;;;;;;;7.47;3.67;;;;;;;;;;4980470;28;20033;-65
2023/10/23 09:40:17;;;;;;;7.55;4.40;;;;;;;;;;4961446;28;20058;-65
2023/10/23 09:42:43;;;;;;;8.98;4.22;;;;;;;;;;4995919;28;20844;-64
2023/10/23 09:45:09;;;;;;;6.78;3.63;;;;;;;;;;4980089;28;20798;-65
2023/10/23 09:47:35;;;;;;;8.32;3.83;;;;;;;;;;4978526;28;20806;-65
2023/10/23 09:50:03;;;;;;;6.43;3.95;;;;;;;;;;4973957;28;20032;-65
2023/10/23 09:52:30;;;;;;;7.88;3.75;;;;;;;;;;4972188;28;20018;-66
2023/10/23 09:55:16;;;;;;;7.13;3.63;;;;;;;;;;4993007;28;20022;-65
2023/10/23 09:57:45;;;;;;;10.13;4.43;;;;;;;;;;5000327;28;20093;-65
2023/10/23 10:00:14;;;;;;;7.18;3.28;;;;;;;;;;4969457;28;20030;-65
2023/10/23 10:02:49;;;;;;;6.28;3.03;;;;;;;;;;4967017;28;20771;-69
2023/10/23 10:05:34;;;;;;;7.28;2.80;;;;;;;;;;4975698;28;20093;-65
2023/10/23 10:08:03;;;;;;;5.20;2.47;;;;;;;;;;4968778;28;20153;-66
2023/10/23 10:10:32;;;;;;;6.75;2.70;;;;;;;;;;4973301;28;20942;-66
2023/10/23 10:12:58;;;;;;;4.82;2.40;;;;;;;;;;4969004;28;20045;-66
2023/10/23 10:15:23;;;;;;;6.07;2.65;;;;;;;;;;4968579;28;20018;-65
2023/10/23 10:17:49;;;;;;;9.35;2.75;;;;;;;;;;4968355;28;20065;-65
2023/10/23 10:20:18;;;;;;;4.32;2.60;;;;;;;;;;4964901;28;20156;-65
2023/10/23 10:22:43;;;;;;;5.97;2.88;;;;;;;;;;4971034;28;20030;-65
2023/10/23 10:25:11;;;;;;;10.30;2.75;;;;;;;;;;4970982;28;20036;-66
2023/10/23 10:27:36;;;;;;;6.85;2.55;;;;;;;;;;4969456;28;20026;-67
2023/10/23 10:30:04;;;;;;;7.47;2.95;;;;;;;;;;4970254;28;20174;-66
2023/10/23 10:32:30;;;;;;;8.82;2.70;;;;;;;;;;4967938;28;20550;-66
2023/10/23 10:34:59;;;;;;;4.93;2.00;;;;;;;;;;4973316;28;20021;-65
2023/10/23 10:37:25;;;;;;;5.15;1.95;;;;;;;;;;4971001;28;20914;-65
2023/10/23 10:39:50;;;;;;;4.85;2.15;;;;;;;;;;4971183;28;20025;-63
2023/10/23 10:42:16;;;;;;;4.00;1.70;;;;;;;;;;4969821;28;20897;-63
2023/10/23 10:44:54;;;;;;;3.78;2.03;;;;;;;;;;4963405;28;20310;-62
2023/10/23 10:47:20;;;;;;;4.68;1.75;;;;;;;;;;4971873;28;20034;-63
2023/10/23 10:49:50;;;;;;;3.47;1.48;;;;;;;;;;4971368;28;20123;-62
2023/10/23 10:52:26;;;;;;;4.95;1.48;;;;;;;;;;4973231;28;20032;-63
2023/10/23 10:54:53;;;;;;;4.50;1.65;;;;;;;;;;4966349;28;20848;-63
2023/10/23 10:57:19;;;;;;;3.78;1.73;;;;;;;;;;4963923;28;20037;-63
2023/10/23 10:59:44;;;;;;;6.22;1.95;;;;;;;;;;4968973;28;20030;-63
2023/10/23 11:02:09;;;;;;;3.30;1.60;;;;;;;;;;4971461;28;20936;-63
2023/10/23 11:04:35;;;;;;;3.75;1.55;;;;;;;;;;4961713;28;20029;-63
2023/10/23 11:07:00;;;;;;;5.05;1.85;;;;;;;;;;4972450;28;20025;-63
2023/10/23 11:09:25;;;;;;;6.05;1.50;;;;;;;;;;4968989;28;20026;-63
2023/10/23 11:11:50;;;;;;;5.97;1.55;;;;;;;;;;4967355;28;20061;-63
2023/10/23 11:14:15;;;;;;;3.43;1.60;;;;;;;;;;4965808;28;20894;-63
2023/10/23 11:16:41;;;;;;;4.60;1.87;;;;;;;;;;4970732;28;21165;-63
2023/10/23 11:19:06;;;;;;;3.38;2.00;;;;;;;;;;4963915;28;21464;-65
2023/10/23 11:21:32;;;;;;;4.97;2.22;;;;;;;;;;4969676;28;20096;-65
2023/10/23 11:23:58;;;;;;;5.20;2.13;;;;;;;;;;4970675;28;20038;-65
2023/10/23 11:26:23;;;;;;;4.25;2.58;;;;;;;;;;4965487;28;20033;-65
2023/10/23 11:28:49;;;;;;;3.17;1.50;;;;;;;;;;4970058;28;20033;-66
2023/10/23 11:31:14;;;;;;;3.75;2.05;;;;;;;;;;4963964;28;20893;-65
2023/10/23 11:33:39;;;;;;;5.30;2.00;;;;;;;;;;4968666;28;20022;-65
2023/10/23 11:36:05;;;;;;;3.50;1.97;;;;;;;;;;4970975;28;20322;-65
2023/10/23 11:38:36;;;;;;;3.83;1.58;;;;;;;;;;4969748;28;20296;-66
2023/10/23 11:41:01;;;;;;;4.70;1.80;;;;;;;;;;4970068;28;20030;-66
2023/10/23 11:43:27;;;;;;;3.72;1.73;;;;;;;;;;4972015;28;20124;-65
2023/10/23 11:45:52;;;;;;;4.35;1.90;;;;;;;;;;4971734;28;20578;-66
2023/10/23 11:48:18;;;;;;;5.65;1.58;;;;;;;;;;4969370;28;20863;-65
2023/10/23 11:50:43;;;;;;;5.82;1.58;;;;;;;;;;4972968;28;20053;-65
2023/10/23 11:53:08;;;;;;;5.13;1.58;;;;;;;;;;4969606;28;20076;-65
2023/10/23 11:55:35;;;;;;;2.85;1.42;;;;;;;;;;4969395;28;20137;-65
2023/10/23 11:58:00;;;;;;;3.65;1.23;;;;;;;;;;4967561;28;20095;-65
2023/10/23 12:00:27;;;;;;;2.90;1.20;;;;;;;;;;4965087;28;20036;-66
2023/10/23 12:02:52;;;;;;;5.60;1.58;;;;;;;;;;4970389;28;20820;-65
2023/10/23 12:05:21;;;;;;;10.55;1.77;;;;;;;;;;4968061;28;20120;-65
2023/10/23 12:07:50;;;;;;;5.13;1.52;;;;;;;;;;4970080;28;20870;-65
2023/10/23 12:10:19;;;;;;;3.90;1.55;;;;;;;;;;4970990;28;20026;-65
2023/10/23 12:12:45;;;;;;;4.35;1.45;;;;;;;;;;4968039;28;20017;-65
2023/10/23 12:15:11;;;;;;;4.45;1.63;;;;;;;;;;4959186;28;20926;-65
2023/10/23 12:17:37;;;;;;;5.07;1.40;;;;;;;;;;4970311;28;20030;-65
2023/10/23 12:20:07;;;;;;;3.15;1.38;;;;;;;;;;4969296;28;20084;-65
2023/10/23 12:22:33;;;;;;;3.40;1.50;;;;;;;;;;4969144;28;20029;-65
2023/10/23 12:24:58;;;;;;;5.30;1.80;;;;;;;;;;4971821;28;20041;-64
2023/10/23 12:27:23;;;;;;;3.97;1.70;;;;;;;;;;4974470;28;20532;-65
2023/10/23 12:29:48;;;;;;;5.53;1.83;;;;;;;;;;4970319;28;21063;-65
2023/10/23 12:32:14;;;;;;;3.83;1.13;;;;;;;;;;4958496;28;21073;-64
2023/10/23 12:34:39;;;;;;;2.60;1.40;;;;;;;;;;4964231;28;20080;-64
2023/10/23 12:37:05;;;;;;;4.07;1.70;;;;;;;;;;4970559;28;20030;-65
2023/10/23 12:39:30;;;;;;;3.45;1.70;;;;;;;;;;4964242;28;21199;-64
2023/10/23 12:41:55;;;;;;;4.78;1.95;;;;;;;;;;4968822;28;20045;-65
2023/10/23 12:44:21;;;;;;;3.38;1.77;;;;;;;;;;4969586;28;20128;-65
2023/10/23 12:46:46;;;;;;;4.78;1.70;;;;;;;;;;4969489;28;20069;-65
2023/10/23 12:49:11;;;;;;;7.20;2.13;;;;;;;;;;4967331;28;20077;-66
2023/10/23 12:51:36;;;;;;;3.73;1.83;;;;;;;;;;4971553;28;20300;-65
2023/10/23 12:54:02;;;;;;;4.07;1.98;;;;;;;;;;4969757;28;20282;-65
2023/10/23 12:56:27;;;;;;;4.03;2.13;;;;;;;;;;4977778;28;21563;-65
2023/10/23 12:58:52;;;;;;;5.00;2.25;;;;;;;;;;4970876;28;20037;-65
2023/10/23 13:01:17;;;;;;;8.47;2.37;;;;;;;;;;4977486;28;20033;-66
2023/10/23 13:03:43;;;;;;;6.25;2.33;;;;;;;;;;4967472;28;20280;-65
2023/10/23 13:06:08;;;;;;;5.40;2.00;;;;;;;;;;4968961;28;20026;-66
2023/10/23 13:08:33;;;;;;;4.13;2.20;;;;;;;;;;4963728;28;20026;-66
2023/10/23 13:10:59;;;;;;;4.53;2.28;;;;;;;;;;4972945;28;20029;-66
2023/10/23 13:13:24;;;;;;;4.32;2.53;;;;;;;;;;4973906;28;20018;-66
2023/10/23 13:15:49;;;;;;;4.13;2.27;;;;;;;;;;4966436;28;20135;-66
2023/10/23 13:18:15;;;;;;;3.77;2.10;;;;;;;;;;4968200;28;20358;-66
2023/10/23 13:20:40;;;;;;;4.53;2.35;;;;;;;;;;4970624;28;20343;-66
2023/10/23 13:23:05;;;;;;;5.77;2.80;;;;;;;;;;4969071;28;20783;-66
2023/10/23 13:25:30;;;;;;;4.20;2.40;;;;;;;;;;4962751;28;20421;-66
2023/10/23 13:27:55;;;;;;;3.80;2.07;;;;;;;;;;4969459;28;21035;-67
2023/10/23 13:30:21;;;;;;;6.40;2.72;;;;;;;;;;4972386;28;20336;-66
2023/10/23 13:32:46;;;;;;;5.38;2.85;;;;;;;;;;4962848;28;20023;-67
2023/10/23 13:35:14;;;;;;;8.15;2.78;;;;;;;;;;4973662;28;20740;-65
2023/10/23 13:37:39;;;;;;;4.50;2.63;;;;;;;;;;4969927;28;20034;-64
2023/10/23 13:40:07;;;;;;;7.07;2.90;;;;;;;;;;4973627;28;20053;-64
2023/10/23 13:42:33;;;;;;;6.82;2.58;;;;;;;;;;4964305;28;20029;-65
2023/10/23 13:44:59;;;;;;;5.35;2.50;;;;;;;;;;4969784;28;20054;-64
2023/10/23 13:47:24;;;;;;;9.55;3.25;;;;;;;;;;4969127;28;20026;-64
2023/10/23 13:49:49;;;;;;;3.53;2.28;;;;;;;;;;4969704;28;20088;-66
2023/10/23 13:52:14;;;;;;;5.70;2.20;;;;;;;;;;4971070;28;20862;-66
2023/10/23 13:54:40;;;;;;;5.03;1.87;;;;;;;;;;4970238;28;20029;-66
2023/10/23 13:57:05;;;;;;;4.55;2.08;;;;;;;;;;4993916;28;20281;-67
2023/10/23 13:59:30;;;;;;;4.00;2.00;;;;;;;;;;5004374;28;20056;-65
2023/10/23 14:01:55;;;;;;;5.00;2.17;;;;;;;;;;5000370;28;20382;-67
2023/10/23 14:04:21;;;;;;;5.37;2.20;;;;;;;;;;5009035;28;20353;-66
2023/10/23 14:06:46;;;;;;;3.45;1.90;;;;;;;;;;5000522;28;20284;-66
2023/10/23 14:09:11;;;;;;;5.10;1.90;;;;;;;;;;5008994;28;20037;-66
2023/10/23 14:11:37;;;;;;;7.50;1.83;;;;;;;;;;5009202;28;20285;-65
2023/10/23 14:14:02;;;;;;;3.72;1.60;;;;;;;;;;4996799;28;20200;-65
2023/10/23 14:16:27;;;;;;;3.30;2.08;;;;;;;;;;5006836;28;20029;-65
2023/10/23 14:18:52;;;;;;;4.63;2.03;;;;;;;;;;5007984;28;20045;-64
2023/10/23 14:21:18;;;;;;;5.03;2.28;;;;;;;;;;4970717;28;20029;-64
2023/10/23 14:23:43;;;;;;;4.72;2.20;;;;;;;;;;5010680;28;20075;-64
2023/10/23 14:26:11;;;;;;;4.07;1.90;;;;;;;;;;4993174;28;20018;-62
2023/10/23 14:28:36;;;;;;;3.47;1.70;;;;;;;;;;4984220;28;20037;-62
2023/10/23 14:31:01;;;;;;;3.83;1.67;;;;;;;;;;4995198;28;20037;-65
2023/10/23 14:33:27;;;;;;;5.05;1.77;;;;;;;;;;5010821;28;20093;-64
2023/10/23 14:35:54;;;;;;;3.00;1.60;;;;;;;;;;5006923;28;20032;-63
2023/10/23 14:38:23;;;;;;;5.50;1.92;;;;;;;;;;5001300;28;20059;-63
2023/10/23 14:40:54;;;;;;;4.03;2.20;;;;;;;;;;5013628;28;20472;-64
2023/10/23 14:43:20;;;;;;;7.28;2.03;;;;;;;;;;5013616;28;20084;-66
2023/10/23 14:45:46;;;;;;;3.35;1.80;;;;;;;;;;5007280;28;20494;-65
2023/10/23 14:48:11;;;;;;;2.90;1.52;;;;;;;;;;5013466;28;20030;-67
2023/10/23 14:50:36;;;;;;;4.75;2.28;;;;;;;;;;5009309;28;20021;-65
2023/10/23 14:53:02;;;;;;;4.38;1.73;;;;;;;;;;5013882;28;20034;-67
2023/10/23 14:55:28;;;;;;;3.38;1.45;;;;;;;;;;5006470;28;20151;-67
2023/10/23 14:57:53;;;;;;;2.90;1.67;;;;;;;;;;5010464;28;20051;-67
2023/10/23 15:00:19;;;;;;;4.10;2.00;;;;;;;;;;5009887;28;20468;-67
2023/10/23 15:02:45;;;;;;;5.35;1.70;;;;;;;;;;4997507;28;20756;-65
2023/10/23 15:05:10;;;;;;;4.22;1.85;;;;;;;;;;5006000;28;20030;-71
2023/10/23 15:07:36;;;;;;;4.78;1.90;;;;;;;;;;5006581;28;20036;-68
2023/10/23 15:10:01;;;;;;;4.25;1.92;;;;;;;;;;5001006;28;20042;-69
2023/10/23 15:12:26;;;;;;;3.78;1.58;;;;;;;;;;5006711;28;20469;-68
2023/10/23 15:14:52;;;;;;;5.75;1.60;;;;;;;;;;5005736;28;20065;-68
2023/10/23 15:17:17;;;;;;;2.88;1.60;;;;;;;;;;5008849;28;20022;-68
2023/10/23 15:19:42;;;;;;;4.40;2.08;;;;;;;;;;5004819;28;20473;-69
2023/10/23 15:22:08;;;;;;;3.67;1.80;;;;;;;;;;5012566;28;20017;-68
2023/10/23 15:24:33;;;;;;;3.53;1.80;;;;;;;;;;5011392;28;20277;-69
2023/10/23 15:26:58;;;;;;;6.32;2.10;;;;;;;;;;5008802;28;20038;-67
2023/10/23 15:29:23;;;;;;;4.78;2.20;;;;;;;;;;5008403;28;20499;-65
2023/10/23 15:31:48;;;;;;;4.93;1.93;;;;;;;;;;4999672;28;20045;-66
2023/10/23 15:34:14;;;;;;;3.37;1.83;;;;;;;;;;4998340;28;20292;-66
2023/10/23 15:36:39;;;;;;;3.65;1.55;;;;;;;;;;5002059;28;20503;-66
2023/10/23 15:39:04;;;;;;;3.95;1.73;;;;;;;;;;5009027;28;20033;-66
2023/10/23 15:41:29;;;;;;;3.30;1.80;;;;;;;;;;5001389;28;20053;-64
2023/10/23 15:43:55;;;;;;;3.40;1.80;;;;;;;;;;5011993;28;20276;-63
2023/10/23 15:46:21;;;;;;;4.15;2.35;;;;;;;;;;4992552;28;20297;-67
2023/10/23 15:48:47;;;;;;;4.90;2.25;;;;;;;;;;4980415;28;20088;-67
2023/10/23 15:51:12;;;;;;;6.22;2.92;;;;;;;;;;4969244;28;20053;-68
2023/10/23 15:53:37;;;;;;;4.47;2.67;;;;;;;;;;4975592;28;20125;-68
2023/10/23 15:56:03;;;;;;;6.72;3.03;;;;;;;;;;4973970;28;20022;-67
2023/10/23 15:58:28;;;;;;;4.28;2.30;;;;;;;;;;4973687;28;20049;-70
2023/10/23 16:00:54;;;;;;;7.35;3.40;;;;;;;;;;4964980;28;20042;-68
2023/10/23 16:03:20;;;;;;;7.13;2.80;;;;;;;;;;4963811;28;20035;-70
2023/10/23 16:05:46;;;;;;;5.90;3.00;;;;;;;;;;4957585;28;20243;-71
2023/10/23 16:08:14;;;;;;;4.25;2.15;;;;;;;;;;4971368;28;20931;-68
2023/10/23 16:10:47;;;;;;;5.00;2.63;;;;;;;;;;4961596;28;20023;-68
2023/10/23 16:13:12;;;;;;;4.72;2.13;;;;;;;;;;4969545;28;20025;-72
2023/10/23 16:15:38;;;;;;;6.68;2.40;;;;;;;;;;4965311;28;20108;-75
2023/10/23 16:18:04;;;;;;;5.53;2.65;;;;;;;;;;4971944;28;20030;-77
2023/10/23 16:20:29;;;;;;;3.97;2.28;;;;;;;;;;4972595;28;20188;-70
2023/10/23 16:22:55;;;;;;;6.68;2.83;;;;;;;;;;4957770;28;20022;-66
2023/10/23 16:25:20;;;;;;;4.53;2.60;;;;;;;;;;4973242;28;20865;-66
2023/10/23 16:27:45;;;;;;;5.70;3.15;;;;;;;;;;4966140;28;20709;-63
2023/10/23 16:30:12;;;;;;;5.80;2.65;;;;;;;;;;4965621;28;20034;-63
2023/10/23 16:32:39;;;;;;;8.23;3.58;;;;;;;;;;4955865;28;20038;-64
2023/10/23 16:35:05;;;;;;;7.15;3.88;;;;;;;;;;4975401;28;20029;-65
2023/10/23 16:37:30;;;;;;;5.22;2.80;;;;;;;;;;4967778;28;20144;-65
2023/10/23 16:39:56;;;;;;;5.82;2.92;;;;;;;;;;4966440;28;20034;-65
2023/10/23 16:42:21;;;;;;;9.57;4.10;;;;;;;;;;4970980;28;20041;-65
2023/10/23 16:44:46;;;;;;;7.15;3.80;;;;;;;;;;4968572;28;20065;-65
2023/10/23 16:47:13;;;;;;;6.53;3.35;;;;;;;;;;4958470;28;20120;-64
2023/10/23 16:49:38;;;;;;;4.88;3.35;;;;;;;;;;4970247;28;20053;-65
2023/10/23 16:52:04;;;;;;;6.28;4.00;;;;;;;;;;4969737;28;20127;-65
2023/10/23 16:54:29;;;;;;;5.97;3.75;;;;;;;;;;4965230;28;20053;-65
2023/10/23 16:56:54;;;;;;;5.53;3.73;;;;;;;;;;4968772;28;20042;-65
2023/10/23 16:59:19;;;;;;;7.45;3.47;;;;;;;;;;4968280;28;20303;-65
2023/10/23 17:01:45;;;;;;;8.55;3.80;;;;;;;;;;4967057;28;20034;-65
2023/10/23 17:04:11;;;;;;;7.22;4.00;;;;;;;;;;4966141;28;20863;-65
2023/10/23 17:06:36;;;;;;;6.82;3.47;;;;;;;;;;4969362;28;20887;-66
2023/10/23 17:09:01;;;;;;;6.07;3.53;;;;;;;;;;4968803;28;20026;-66
2023/10/23 17:11:27;;;;;;;8.73;3.63;;;;;;;;;;4962198;28;20029;-65
2023/10/23 17:13:53;;;;;;;7.53;4.07;;;;;;;;;;4973012;28;20331;-65
2023/10/23 17:16:18;;;;;;;9.68;6.60;;;;;;;;;;4968572;28;20029;-65
2023/10/23 17:18:43;;;;;;;11.65;6.00;;;;;;;;;;4970631;28;20037;-66
2023/10/23 17:21:08;;;;;;;5.88;3.83;;;;;;;;;;4968953;28;20022;-65
2023/10/23 17:23:34;;;;;;;9.50;3.83;;;;;;;;;;4968701;28;20030;-65
2023/10/23 17:26:00;;;;;;;4.82;2.83;;;;;;;;;;4968893;28;20288;-65